createdAt,value
2022-08-04T00:00:03.232Z,0.00
2022-08-04T00:01:03.725Z,0.00
2022-08-04T00:02:03.520Z,0.00
2022-08-04T00:03:03.660Z,0.00
2022-08-04T00:04:03.890Z,0.00
2022-08-04T00:05:03.522Z,0.00
2022-08-04T00:06:03.959Z,0.00
2022-08-04T00:07:03.656Z,0.00
2022-08-04T00:08:03.998Z,0.00
2022-08-04T00:09:03.892Z,0.00
2022-08-04T00:10:04.202Z,0.00
2022-08-04T00:11:03.878Z,0.00
2022-08-04T00:12:03.249Z,0.00
2022-08-04T00:13:03.700Z,0.00
2022-08-04T00:14:03.988Z,0.00
2022-08-04T00:15:03.847Z,0.00
2022-08-04T00:16:03.531Z,0.00
2022-08-04T00:17:03.560Z,0.00
2022-08-04T00:18:04.011Z,0.00
2022-08-04T00:19:03.756Z,0.00
2022-08-04T00:20:03.492Z,0.00
2022-08-04T00:21:03.835Z,0.00
2022-08-04T00:22:03.411Z,0.00
2022-08-04T00:23:03.746Z,0.00
2022-08-04T00:24:12.226Z,0.00
2022-08-04T00:25:03.424Z,0.00
2022-08-04T00:26:03.798Z,0.00
2022-08-04T00:27:03.482Z,0.00
2022-08-04T00:28:03.915Z,0.00
2022-08-04T00:29:03.644Z,0.00
2022-08-04T00:30:04.033Z,0.00
2022-08-04T00:31:03.701Z,0.00
2022-08-04T00:32:03.135Z,0.00
2022-08-04T00:33:03.389Z,0.00
2022-08-04T00:34:03.080Z,0.00
2022-08-04T00:35:03.479Z,0.00
2022-08-04T00:36:03.219Z,0.00
2022-08-04T00:37:03.575Z,0.00
2022-08-04T00:38:03.615Z,0.00
2022-08-04T00:39:03.947Z,0.00
2022-08-04T00:40:03.749Z,0.00
2022-08-04T00:41:03.527Z,0.00
2022-08-04T00:42:03.885Z,0.00
2022-08-04T00:43:03.826Z,0.00
2022-08-04T00:44:04.110Z,0.00
2022-08-04T00:45:03.978Z,0.00
2022-08-04T00:46:16.684Z,0.00
2022-08-04T00:47:04.102Z,0.00
2022-08-04T00:48:04.452Z,0.00
2022-08-04T00:49:03.999Z,0.00
2022-08-04T00:50:04.456Z,0.00
2022-08-04T00:51:04.100Z,0.00
2022-08-04T00:52:30.643Z,0.00
2022-08-04T00:53:03.933Z,0.00
2022-08-04T00:54:03.601Z,0.00
2022-08-04T00:55:06.920Z,0.00
2022-08-04T00:56:03.718Z,0.00
2022-08-04T00:57:04.115Z,0.00
2022-08-04T00:58:04.234Z,0.00
2022-08-04T00:59:04.002Z,0.00
2022-08-04T01:00:04.416Z,0.00
2022-08-04T01:01:04.485Z,0.00
2022-08-04T01:02:03.265Z,0.00
2022-08-04T01:03:03.634Z,0.00
2022-08-04T01:04:03.286Z,0.00
2022-08-04T01:05:03.432Z,0.00
2022-08-04T01:06:03.134Z,0.00
2022-08-04T01:07:03.517Z,0.00
2022-08-04T01:08:03.282Z,0.00
2022-08-04T01:09:03.377Z,0.00
2022-08-04T01:10:03.783Z,0.00
2022-08-04T01:11:03.427Z,0.00
2022-08-04T01:12:03.787Z,0.00
2022-08-04T01:13:07.732Z,0.00
2022-08-04T01:14:03.808Z,0.00
2022-08-04T01:15:04.146Z,0.00
2022-08-04T01:16:03.894Z,0.00
2022-08-04T01:17:03.586Z,0.00
2022-08-04T01:18:03.272Z,0.00
2022-08-04T01:19:03.478Z,0.00
2022-08-04T01:20:03.124Z,0.00
2022-08-04T01:21:03.223Z,0.00
2022-08-04T01:22:03.611Z,0.00
2022-08-04T01:23:03.265Z,0.00
2022-08-04T01:24:03.672Z,0.00
2022-08-04T01:25:04.651Z,0.00
2022-08-04T01:26:06.910Z,0.00
2022-08-04T01:27:04.154Z,0.00
2022-08-04T01:28:04.499Z,0.00
2022-08-04T01:29:04.215Z,0.00
2022-08-04T01:30:03.936Z,0.00
2022-08-04T01:31:04.424Z,0.00
2022-08-04T01:32:03.893Z,0.00
2022-08-04T01:33:03.588Z,0.00
2022-08-04T01:34:04.784Z,0.00
2022-08-04T01:35:03.620Z,0.00
2022-08-04T01:36:04.040Z,0.00
2022-08-04T01:37:04.523Z,0.00
2022-08-04T01:38:20.102Z,0.00
2022-08-04T01:39:04.676Z,0.00
2022-08-04T01:40:04.536Z,0.00
2022-08-04T01:41:04.196Z,0.00
2022-08-04T01:42:03.616Z,0.00
2022-08-04T01:43:03.420Z,0.00
2022-08-04T01:44:03.830Z,0.00
2022-08-04T01:45:03.501Z,0.00
2022-08-04T01:46:03.445Z,0.00
2022-08-04T01:47:04.127Z,0.00
2022-08-04T01:48:03.928Z,0.00
2022-08-04T01:49:04.299Z,0.00
2022-08-04T01:50:04.383Z,0.00
2022-08-04T01:51:04.074Z,0.00
2022-08-04T01:52:04.463Z,0.00
2022-08-04T01:53:04.116Z,0.00
2022-08-04T01:54:04.472Z,0.00
2022-08-04T01:55:04.465Z,0.00
2022-08-04T01:56:04.212Z,0.00
2022-08-04T01:57:38.400Z,0.00
2022-08-04T01:58:04.428Z,0.00
2022-08-04T01:59:04.719Z,0.00
2022-08-04T02:00:04.615Z,0.00
2022-08-04T02:01:05.219Z,0.00
2022-08-04T02:02:04.158Z,0.00
2022-08-04T02:03:04.152Z,0.00
2022-08-04T02:04:20.035Z,0.00
2022-08-04T02:05:03.882Z,0.00
2022-08-04T02:06:04.378Z,0.00
2022-08-04T02:07:03.828Z,0.00
2022-08-04T02:08:04.263Z,0.00
2022-08-04T02:09:03.897Z,0.00
2022-08-04T02:10:03.626Z,0.00
2022-08-04T02:11:04.274Z,0.00
2022-08-04T02:12:03.655Z,0.00
2022-08-04T02:13:03.334Z,0.00
2022-08-04T02:14:03.456Z,0.00
2022-08-04T02:15:03.783Z,0.00
2022-08-04T02:16:03.213Z,0.00
2022-08-04T02:17:04.351Z,0.00
2022-08-04T02:18:04.312Z,0.00
2022-08-04T02:19:03.936Z,0.00
2022-08-04T02:20:04.271Z,0.00
2022-08-04T02:21:03.930Z,0.00
2022-08-04T02:22:03.645Z,0.00
2022-08-04T02:23:04.016Z,0.00
2022-08-04T02:24:03.665Z,0.00
2022-08-04T02:25:04.044Z,0.00
2022-08-04T02:26:03.671Z,0.00
2022-08-04T02:27:04.703Z,0.00
2022-08-04T02:28:04.411Z,0.00
2022-08-04T02:29:04.743Z,0.00
2022-08-04T02:30:04.538Z,0.00
2022-08-04T02:31:04.187Z,0.00
2022-08-04T02:32:03.649Z,0.00
2022-08-04T02:33:04.134Z,0.00
2022-08-04T02:34:03.884Z,0.00
2022-08-04T02:35:03.898Z,0.00
2022-08-04T02:36:03.661Z,0.00
2022-08-04T02:37:04.717Z,0.00
2022-08-04T02:38:04.126Z,0.00
2022-08-04T02:39:04.587Z,0.00
2022-08-04T02:40:04.185Z,0.00
2022-08-04T02:41:04.423Z,0.00
2022-08-04T02:42:04.733Z,0.00
2022-08-04T02:43:04.394Z,0.00
2022-08-04T02:44:04.129Z,0.00
2022-08-04T02:45:04.528Z,0.00
2022-08-04T02:46:04.399Z,0.00
2022-08-04T02:47:03.871Z,0.00
2022-08-04T02:48:29.159Z,0.00
2022-08-04T02:49:04.352Z,0.00
2022-08-04T02:50:03.948Z,0.00
2022-08-04T02:51:04.437Z,0.00
2022-08-04T02:52:04.084Z,0.00
2022-08-04T02:53:04.430Z,0.00
2022-08-04T02:54:04.654Z,0.00
2022-08-04T02:55:04.526Z,0.00
2022-08-04T02:56:04.194Z,0.00
2022-08-04T02:57:04.366Z,0.00
2022-08-04T02:58:03.978Z,0.00
2022-08-04T02:59:03.714Z,0.00
2022-08-04T03:00:04.149Z,0.00
2022-08-04T03:01:04.255Z,0.00
2022-08-04T03:02:02.873Z,0.00
2022-08-04T03:03:03.269Z,0.00
2022-08-04T03:04:03.273Z,0.00
2022-08-04T03:05:02.880Z,0.00
2022-08-04T03:06:06.401Z,0.00
2022-08-04T03:07:03.442Z,0.00
2022-08-04T03:08:03.862Z,0.00
2022-08-04T03:09:03.870Z,0.00
2022-08-04T03:10:04.081Z,0.00
2022-08-04T03:11:03.726Z,0.00
2022-08-04T03:12:03.276Z,0.00
2022-08-04T03:13:03.645Z,0.00
2022-08-04T03:14:05.266Z,0.00
2022-08-04T03:15:03.045Z,0.00
2022-08-04T03:16:03.399Z,0.00
2022-08-04T03:17:03.756Z,0.00
2022-08-04T03:18:04.192Z,0.00
2022-08-04T03:19:03.979Z,0.00
2022-08-04T03:20:03.651Z,0.00
2022-08-04T03:21:03.901Z,0.00
2022-08-04T03:22:03.375Z,0.00
2022-08-04T03:23:13.363Z,0.00
2022-08-04T03:24:03.445Z,4.00
2022-08-04T03:25:03.145Z,4.00
2022-08-04T03:26:03.569Z,0.00
2022-08-04T03:27:03.925Z,0.00
2022-08-04T03:28:03.930Z,4.00
2022-08-04T03:29:04.437Z,0.00
2022-08-04T03:30:04.115Z,4.00
2022-08-04T03:31:03.696Z,4.00
2022-08-04T03:32:03.414Z,8.00
2022-08-04T03:33:03.009Z,8.00
2022-08-04T03:34:03.161Z,8.00
2022-08-04T03:35:02.949Z,8.00
2022-08-04T03:36:03.391Z,12.00
2022-08-04T03:37:03.784Z,12.00
2022-08-04T03:38:03.487Z,16.00
2022-08-04T03:39:04.195Z,16.00
2022-08-04T03:40:04.039Z,20.00
2022-08-04T03:41:03.818Z,24.00
2022-08-04T03:42:05.188Z,24.00
2022-08-04T03:43:03.641Z,28.00
2022-08-04T03:44:04.051Z,36.00
2022-08-04T03:45:03.826Z,36.00
2022-08-04T03:46:04.051Z,44.00
2022-08-04T03:47:03.474Z,48.00
2022-08-04T03:48:03.203Z,56.00
2022-08-04T03:49:03.682Z,64.00
2022-08-04T03:50:04.423Z,72.00
2022-08-04T03:51:03.749Z,80.00
2022-08-04T03:52:04.136Z,88.00
2022-08-04T03:53:03.853Z,100.00
2022-08-04T03:54:04.194Z,112.00
2022-08-04T03:55:03.977Z,124.00
2022-08-04T03:56:03.865Z,136.00
2022-08-04T03:57:03.364Z,144.00
2022-08-04T03:58:03.165Z,156.00
2022-08-04T03:59:03.578Z,172.00
2022-08-04T04:00:03.391Z,188.00
2022-08-04T04:01:03.531Z,204.00
2022-08-04T04:02:06.757Z,224.00
2022-08-04T04:03:03.831Z,240.00
2022-08-04T04:04:04.213Z,260.00
2022-08-04T04:05:04.082Z,276.00
2022-08-04T04:06:03.998Z,292.00
2022-08-04T04:07:03.612Z,316.00
2022-08-04T04:08:04.299Z,336.00
2022-08-04T04:09:03.551Z,356.00
2022-08-04T04:10:06.362Z,380.00
2022-08-04T04:11:03.088Z,404.00
2022-08-04T04:12:04.006Z,432.00
2022-08-04T04:13:04.018Z,464.00
2022-08-04T04:14:03.884Z,488.00
2022-08-04T04:15:03.841Z,516.00
2022-08-04T04:16:04.328Z,544.00
2022-08-04T04:17:03.758Z,580.00
2022-08-04T04:18:03.609Z,616.00
2022-08-04T04:19:03.614Z,656.00
2022-08-04T04:20:03.242Z,696.00
2022-08-04T04:21:03.698Z,736.00
2022-08-04T04:22:04.221Z,776.00
2022-08-04T04:23:04.064Z,816.00
2022-08-04T04:24:03.748Z,856.00
2022-08-04T04:25:03.837Z,896.00
2022-08-04T04:26:03.671Z,936.00
2022-08-04T04:27:03.857Z,972.00
2022-08-04T04:28:44.802Z,1020.00
2022-08-04T04:29:03.622Z,1056.00
2022-08-04T04:30:03.553Z,1104.00
2022-08-04T04:31:03.587Z,1144.00
2022-08-04T04:32:04.099Z,1188.00
2022-08-04T04:33:03.964Z,1236.00
2022-08-04T04:34:03.812Z,1284.00
2022-08-04T04:35:03.591Z,1344.00
2022-08-04T04:36:04.156Z,1408.00
2022-08-04T04:37:02.994Z,1472.00
2022-08-04T04:38:03.549Z,1532.00
2022-08-04T04:39:03.411Z,1580.00
2022-08-04T04:40:03.895Z,1612.00
2022-08-04T04:41:03.071Z,1624.00
2022-08-04T04:42:03.567Z,1632.00
2022-08-04T04:43:03.880Z,1648.00
2022-08-04T04:44:03.802Z,1676.00
2022-08-04T04:45:03.571Z,1708.00
2022-08-04T04:46:04.060Z,1740.00
2022-08-04T04:47:03.878Z,1772.00
2022-08-04T04:48:09.586Z,1792.00
2022-08-04T04:49:04.194Z,1812.00
2022-08-04T04:50:04.122Z,1832.00
2022-08-04T04:51:04.226Z,1832.00
2022-08-04T04:52:03.149Z,1832.00
2022-08-04T04:53:03.387Z,1820.00
2022-08-04T04:54:03.157Z,1800.00
2022-08-04T04:55:03.678Z,1800.00
2022-08-04T04:56:03.393Z,1796.00
2022-08-04T04:57:03.158Z,1820.00
2022-08-04T04:58:03.251Z,1844.00
2022-08-04T04:59:03.738Z,1876.00
2022-08-04T05:00:03.517Z,1920.00
2022-08-04T05:01:03.173Z,1988.00
2022-08-04T05:02:03.642Z,2052.00
2022-08-04T05:03:07.238Z,2100.00
2022-08-04T05:04:03.214Z,2128.00
2022-08-04T05:05:03.554Z,2124.00
2022-08-04T05:06:03.543Z,2076.00
2022-08-04T05:07:03.367Z,2000.00
2022-08-04T05:08:43.842Z,1976.00
2022-08-04T05:09:03.475Z,2048.00
2022-08-04T05:10:03.733Z,2112.00
2022-08-04T05:11:03.514Z,2188.00
2022-08-04T05:12:03.020Z,2304.00
2022-08-04T05:14:35.657Z,2428.00
2022-08-04T05:14:38.769Z,2616.00
2022-08-04T05:15:03.151Z,2780.00
2022-08-04T05:16:03.625Z,2888.00
2022-08-04T05:17:03.402Z,2984.00
2022-08-04T05:18:03.846Z,3108.00
2022-08-04T05:19:03.582Z,3068.00
2022-08-04T05:20:03.790Z,2816.00
2022-08-04T05:21:03.451Z,3160.00
2022-08-04T05:22:02.923Z,3364.00
2022-08-04T05:23:03.408Z,3452.00
2022-08-04T05:24:03.179Z,3564.00
2022-08-04T05:25:02.838Z,3912.00
2022-08-04T05:26:03.090Z,4012.00
2022-08-04T05:27:03.522Z,4144.00
2022-08-04T05:28:04.075Z,4280.00
2022-08-04T05:29:04.062Z,4564.00
2022-08-04T05:30:03.770Z,4768.00
2022-08-04T05:31:03.573Z,4928.00
2022-08-04T05:32:03.096Z,4900.00
2022-08-04T05:33:02.921Z,4884.00
2022-08-04T05:34:03.344Z,3808.00
2022-08-04T05:35:03.114Z,4572.00
2022-08-04T05:36:18.898Z,4272.00
2022-08-04T05:37:03.427Z,4332.00
2022-08-04T05:38:03.236Z,4772.00
2022-08-04T05:39:03.814Z,5960.00
2022-08-04T05:40:03.662Z,5364.00
2022-08-04T05:41:03.455Z,4836.00
2022-08-04T05:42:04.428Z,4884.00
2022-08-04T05:43:03.951Z,4744.00
2022-08-04T05:44:03.751Z,5044.00
2022-08-04T05:45:04.291Z,4568.00
2022-08-04T05:46:04.151Z,4364.00
2022-08-04T05:47:03.041Z,4164.00
2022-08-04T05:48:02.790Z,4424.00
2022-08-04T05:49:02.916Z,4844.00
2022-08-04T05:50:03.307Z,4988.00
2022-08-04T05:51:03.176Z,5800.00
2022-08-04T05:52:03.386Z,6248.00
2022-08-04T05:53:03.900Z,6656.00
2022-08-04T05:54:03.879Z,6976.00
2022-08-04T05:55:03.678Z,7216.00
2022-08-04T05:56:03.439Z,7456.00
2022-08-04T05:57:03.905Z,7852.00
2022-08-04T05:58:03.721Z,6596.00
2022-08-04T05:59:04.201Z,9108.00
2022-08-04T06:00:19.494Z,9404.00
2022-08-04T06:01:03.995Z,9520.00
2022-08-04T06:02:03.627Z,8120.00
2022-08-04T06:03:03.396Z,9532.00
2022-08-04T06:04:06.902Z,10804.00
2022-08-04T06:05:03.478Z,10532.00
2022-08-04T06:06:03.270Z,10000.00
2022-08-04T06:07:03.840Z,9824.00
2022-08-04T06:08:12.420Z,8532.00
2022-08-04T06:09:03.679Z,9112.00
2022-08-04T06:10:03.809Z,8360.00
2022-08-04T06:11:03.606Z,8764.00
2022-08-04T06:12:04.396Z,9256.00
2022-08-04T06:13:03.230Z,10872.00
2022-08-04T06:14:03.149Z,11588.00
2022-08-04T06:15:03.008Z,10620.00
2022-08-04T06:16:02.857Z,9996.00
2022-08-04T06:17:03.432Z,11084.00
2022-08-04T06:18:35.585Z,11700.00
2022-08-04T06:20:02.597Z,15232.00
2022-08-04T06:20:19.139Z,15136.00
2022-08-04T06:21:03.684Z,16544.00
2022-08-04T06:22:03.555Z,14880.00
2022-08-04T06:23:03.599Z,13404.00
2022-08-04T06:24:04.708Z,17824.00
2022-08-04T06:25:03.323Z,18880.00
2022-08-04T06:26:03.671Z,15904.00
2022-08-04T06:27:03.259Z,12940.00
2022-08-04T06:28:03.039Z,11924.00
2022-08-04T06:29:02.890Z,9996.00
2022-08-04T06:30:03.378Z,10640.00
2022-08-04T06:32:30.604Z,10444.00
2022-08-04T06:32:31.491Z,12316.00
2022-08-04T06:33:05.118Z,12692.00
2022-08-04T06:34:04.041Z,13160.00
2022-08-04T06:35:03.807Z,13568.00
2022-08-04T06:36:03.733Z,14272.00
2022-08-04T06:37:04.053Z,14432.00
2022-08-04T06:38:04.024Z,12324.00
2022-08-04T06:39:03.863Z,10544.00
2022-08-04T06:40:04.122Z,10196.00
2022-08-04T06:41:04.284Z,11312.00
2022-08-04T06:42:17.299Z,11256.00
2022-08-04T06:43:04.085Z,9928.00
2022-08-04T06:44:03.727Z,9664.00
2022-08-04T06:45:04.245Z,12744.00
2022-08-04T06:46:04.112Z,14304.00
2022-08-04T06:47:03.356Z,14028.00
2022-08-04T06:48:03.842Z,14356.00
2022-08-04T06:49:03.842Z,15424.00
2022-08-04T06:51:26.757Z,15808.00
2022-08-04T06:52:03.933Z,15392.00
2022-08-04T06:53:03.730Z,16096.00
2022-08-04T06:54:03.816Z,16800.00
2022-08-04T06:55:03.771Z,17056.00
2022-08-04T06:56:03.554Z,17888.00
2022-08-04T06:57:03.475Z,18144.00
2022-08-04T06:58:03.804Z,17408.00
2022-08-04T06:59:03.513Z,17632.00
2022-08-04T07:00:02.998Z,14736.00
2022-08-04T07:01:03.610Z,15904.00
2022-08-04T07:02:03.316Z,14504.00
2022-08-04T07:03:02.745Z,15968.00
2022-08-04T07:04:03.352Z,16512.00
2022-08-04T07:05:07.498Z,17216.00
2022-08-04T07:06:05.617Z,18592.00
2022-08-04T07:07:03.255Z,18784.00
2022-08-04T07:08:03.231Z,15392.00
2022-08-04T07:09:03.172Z,16480.00
2022-08-04T07:10:03.133Z,18816.00
2022-08-04T07:11:03.069Z,19680.00
2022-08-04T07:12:03.690Z,17376.00
2022-08-04T07:13:03.554Z,17888.00
2022-08-04T07:14:03.787Z,18048.00
2022-08-04T07:15:03.474Z,15872.00
2022-08-04T07:16:03.342Z,19360.00
2022-08-04T07:17:04.076Z,20192.00
2022-08-04T07:18:03.893Z,18912.00
2022-08-04T07:19:10.452Z,18752.00
2022-08-04T07:20:03.785Z,18752.00
2022-08-04T07:21:03.748Z,18560.00
2022-08-04T07:22:25.420Z,18016.00
2022-08-04T07:23:03.225Z,17408.00
2022-08-04T07:24:03.126Z,15936.00
2022-08-04T07:25:03.432Z,18720.00
2022-08-04T07:26:12.280Z,20736.00
2022-08-04T07:27:03.682Z,15552.00
2022-08-04T07:28:03.576Z,19424.00
2022-08-04T07:29:03.483Z,14992.00
2022-08-04T07:30:03.375Z,17920.00
2022-08-04T07:31:03.285Z,19968.00
2022-08-04T07:32:03.774Z,21344.00
2022-08-04T07:33:03.685Z,22016.00
2022-08-04T07:34:17.372Z,20288.00
2022-08-04T07:35:03.829Z,22336.00
2022-08-04T07:36:10.729Z,20192.00
2022-08-04T07:37:03.977Z,18976.00
2022-08-04T07:38:03.808Z,19520.00
2022-08-04T07:39:03.655Z,19648.00
2022-08-04T07:40:03.552Z,21824.00
2022-08-04T07:41:03.884Z,21408.00
2022-08-04T07:42:02.854Z,20992.00
2022-08-04T07:43:03.424Z,20512.00
2022-08-04T07:44:03.220Z,18528.00
2022-08-04T07:45:03.057Z,21952.00
2022-08-04T07:46:03.537Z,21568.00
2022-08-04T07:47:03.939Z,20480.00
2022-08-04T07:48:05.125Z,22080.00
2022-08-04T07:49:03.465Z,24512.00
2022-08-04T07:50:04.031Z,24960.00
2022-08-04T07:51:03.804Z,24608.00
2022-08-04T07:52:03.632Z,22656.00
2022-08-04T07:53:53.039Z,23904.00
2022-08-04T07:54:03.966Z,23552.00
2022-08-04T07:55:03.877Z,21632.00
2022-08-04T07:56:03.994Z,18176.00
2022-08-04T07:57:04.426Z,21312.00
2022-08-04T07:58:03.923Z,20960.00
2022-08-04T07:59:03.855Z,21280.00
2022-08-04T08:00:04.433Z,21280.00
2022-08-04T08:01:04.433Z,22816.00
2022-08-04T08:02:03.218Z,21760.00
2022-08-04T08:03:03.817Z,19616.00
2022-08-04T08:04:03.554Z,23584.00
2022-08-04T08:05:03.853Z,22368.00
2022-08-04T08:06:17.601Z,22688.00
2022-08-04T08:07:03.619Z,21216.00
2022-08-04T08:08:04.129Z,21312.00
2022-08-04T08:09:13.086Z,21120.00
2022-08-04T08:10:03.820Z,17312.00
2022-08-04T08:11:03.709Z,20032.00
2022-08-04T08:12:38.043Z,22304.00
2022-08-04T08:13:03.851Z,22144.00
2022-08-04T08:14:03.682Z,21600.00
2022-08-04T08:15:04.241Z,20896.00
2022-08-04T08:16:04.112Z,20544.00
2022-08-04T08:17:03.913Z,20832.00
2022-08-04T08:18:03.937Z,21248.00
2022-08-04T08:19:04.039Z,24768.00
2022-08-04T08:20:04.484Z,23968.00
2022-08-04T08:21:04.507Z,24320.00
2022-08-04T08:22:03.503Z,23616.00
2022-08-04T08:23:03.493Z,18880.00
2022-08-04T08:24:03.613Z,21344.00
2022-08-04T08:25:03.450Z,23232.00
2022-08-04T08:26:03.585Z,24192.00
2022-08-04T08:27:03.286Z,24352.00
2022-08-04T08:28:03.505Z,23456.00
2022-08-04T08:29:03.326Z,24992.00
2022-08-04T08:30:03.660Z,24576.00
2022-08-04T08:31:03.575Z,25664.00
2022-08-04T08:32:08.151Z,26720.00
2022-08-04T08:33:05.478Z,29216.00
2022-08-04T08:34:04.181Z,28928.00
2022-08-04T08:35:04.092Z,28576.00
2022-08-04T08:36:04.357Z,28608.00
2022-08-04T08:37:04.192Z,27712.00
2022-08-04T08:38:04.172Z,27328.00
2022-08-04T08:39:04.309Z,25600.00
2022-08-04T08:40:04.221Z,26528.00
2022-08-04T08:41:04.103Z,26784.00
2022-08-04T08:42:03.747Z,26624.00
2022-08-04T08:44:05.301Z,26592.00
2022-08-04T08:44:05.723Z,27136.00
2022-08-04T08:45:03.979Z,27264.00
2022-08-04T08:46:03.778Z,27520.00
2022-08-04T08:47:04.159Z,27168.00
2022-08-04T08:48:05.850Z,27552.00
2022-08-04T08:49:04.085Z,27648.00
2022-08-04T08:50:04.978Z,27456.00
2022-08-04T08:51:04.680Z,27552.00
2022-08-04T08:52:04.593Z,26400.00
2022-08-04T08:53:04.417Z,24064.00
2022-08-04T08:54:04.959Z,26464.00
2022-08-04T08:55:04.925Z,24128.00
2022-08-04T08:56:04.782Z,24096.00
2022-08-04T08:57:03.771Z,24992.00
2022-08-04T08:58:03.703Z,26048.00
2022-08-04T08:59:03.856Z,26976.00
2022-08-04T09:00:03.680Z,29152.00
2022-08-04T09:01:03.769Z,29024.00
2022-08-04T09:02:03.148Z,28672.00
2022-08-04T09:03:03.981Z,28704.00
2022-08-04T09:04:03.431Z,27840.00
2022-08-04T09:05:03.362Z,23936.00
2022-08-04T09:06:02.849Z,29248.00
2022-08-04T09:07:03.092Z,29376.00
2022-08-04T09:08:03.087Z,29696.00
2022-08-04T09:09:03.101Z,29856.00
2022-08-04T09:10:03.368Z,30080.00
2022-08-04T09:11:03.293Z,30144.00
2022-08-04T09:12:03.013Z,30176.00
2022-08-04T09:13:03.288Z,30208.00
2022-08-04T09:14:03.189Z,30400.00
2022-08-04T09:15:03.028Z,30560.00
2022-08-04T09:16:02.922Z,30624.00
2022-08-04T09:17:03.471Z,30816.00
2022-08-04T09:18:03.251Z,30976.00
2022-08-04T09:19:03.163Z,31104.00
2022-08-04T09:20:03.482Z,31424.00
2022-08-04T09:21:03.371Z,31424.00
2022-08-04T09:22:03.327Z,31808.00
2022-08-04T09:23:03.123Z,32224.00
2022-08-04T09:24:02.863Z,32736.00
2022-08-04T09:25:03.044Z,32960.00
2022-08-04T09:26:03.007Z,33088.00
2022-08-04T09:27:03.581Z,32768.00
2022-08-04T09:28:06.116Z,32640.00
2022-08-04T09:29:03.419Z,31488.00
2022-08-04T09:30:03.199Z,31296.00
2022-08-04T09:31:03.815Z,32704.00
2022-08-04T09:32:06.788Z,32832.00
2022-08-04T09:33:03.227Z,32832.00
2022-08-04T09:34:03.085Z,32128.00
2022-08-04T09:35:09.601Z,33312.00
2022-08-04T09:36:03.033Z,33248.00
2022-08-04T09:37:03.535Z,33472.00
2022-08-04T09:38:03.238Z,33504.00
2022-08-04T09:39:03.633Z,33952.00
2022-08-04T09:40:03.552Z,33984.00
2022-08-04T09:41:03.323Z,34272.00
2022-08-04T09:42:03.854Z,34720.00
2022-08-04T09:43:04.240Z,35232.00
2022-08-04T09:44:51.294Z,36000.00
2022-08-04T09:45:06.156Z,37024.00
2022-08-04T09:46:03.845Z,37120.00
2022-08-04T09:47:03.283Z,36768.00
2022-08-04T09:48:03.109Z,22240.00
2022-08-04T09:49:03.033Z,36544.00
2022-08-04T09:50:02.996Z,36544.00
2022-08-04T09:51:02.868Z,36256.00
2022-08-04T09:52:04.034Z,27648.00
2022-08-04T09:53:04.006Z,36960.00
2022-08-04T09:54:03.906Z,37152.00
2022-08-04T09:55:03.883Z,38112.00
2022-08-04T09:56:04.081Z,31520.00
2022-08-04T09:57:03.575Z,37792.00
2022-08-04T09:58:03.582Z,37728.00
2022-08-04T09:59:03.451Z,36992.00
2022-08-04T10:00:03.388Z,36640.00
2022-08-04T10:01:03.363Z,36512.00
2022-08-04T10:02:04.008Z,36224.00
2022-08-04T10:03:03.998Z,36800.00
2022-08-04T10:04:03.984Z,37152.00
2022-08-04T10:05:03.888Z,37600.00
2022-08-04T10:06:03.782Z,37536.00
2022-08-04T10:07:03.717Z,37312.00
2022-08-04T10:08:15.608Z,37184.00
2022-08-04T10:09:03.376Z,37280.00
2022-08-04T10:10:03.594Z,37248.00
2022-08-04T10:11:03.409Z,37184.00
2022-08-04T10:12:03.890Z,37056.00
2022-08-04T10:13:03.835Z,36640.00
2022-08-04T10:14:03.865Z,35744.00
2022-08-04T10:15:03.670Z,34432.00
2022-08-04T10:16:03.565Z,32032.00
2022-08-04T10:17:04.178Z,28832.00
2022-08-04T10:18:03.713Z,26848.00
2022-08-04T10:19:07.946Z,30720.00
2022-08-04T10:20:04.065Z,27264.00
2022-08-04T10:21:10.242Z,30144.00
2022-08-04T10:22:28.463Z,17792.00
2022-08-04T10:23:11.454Z,21088.00
2022-08-04T10:24:04.170Z,19584.00
2022-08-04T10:25:04.101Z,30912.00
2022-08-04T10:26:07.918Z,24480.00
2022-08-04T10:27:04.645Z,18560.00
2022-08-04T10:28:04.450Z,19424.00
2022-08-04T10:29:04.317Z,19200.00
2022-08-04T10:30:04.076Z,18912.00
2022-08-04T10:31:04.588Z,18624.00
2022-08-04T10:32:03.460Z,21440.00
2022-08-04T10:33:04.116Z,20000.00
2022-08-04T10:34:04.018Z,19296.00
2022-08-04T10:35:03.760Z,18624.00
2022-08-04T10:36:03.664Z,18688.00
2022-08-04T10:37:03.942Z,6112.00
2022-08-04T10:38:04.569Z,17728.00
2022-08-04T10:39:04.500Z,18080.00
2022-08-04T10:40:04.156Z,18624.00
2022-08-04T10:41:04.465Z,19872.00
2022-08-04T10:42:04.362Z,17664.00
2022-08-04T10:43:04.897Z,17152.00
2022-08-04T10:44:04.747Z,18080.00
2022-08-04T10:45:04.939Z,18176.00
2022-08-04T10:46:04.803Z,18752.00
2022-08-04T10:47:04.631Z,20512.00
2022-08-04T10:48:03.668Z,35168.00
2022-08-04T10:49:04.155Z,19744.00
2022-08-04T10:50:04.119Z,19552.00
2022-08-04T10:51:03.909Z,19072.00
2022-08-04T10:52:03.861Z,18784.00
2022-08-04T10:53:04.008Z,19424.00
2022-08-04T10:54:03.973Z,19712.00
2022-08-04T10:55:03.905Z,20160.00
2022-08-04T10:56:06.136Z,22560.00
2022-08-04T10:57:04.366Z,22816.00
2022-08-04T10:58:04.849Z,22784.00
2022-08-04T10:59:04.842Z,23456.00
2022-08-04T11:00:04.791Z,23552.00
2022-08-04T11:01:04.786Z,23168.00
2022-08-04T11:02:04.628Z,22880.00
2022-08-04T11:03:02.631Z,22528.00
2022-08-04T11:04:02.609Z,22944.00
2022-08-04T11:05:03.137Z,23264.00
2022-08-04T11:06:02.956Z,20576.00
2022-08-04T11:07:02.949Z,20192.00
2022-08-04T11:08:06.506Z,22240.00
2022-08-04T11:09:03.324Z,21056.00
2022-08-04T11:10:03.304Z,21664.00
2022-08-04T11:11:03.177Z,22048.00
2022-08-04T11:12:03.096Z,21568.00
2022-08-04T11:13:03.694Z,21536.00
2022-08-04T11:14:03.215Z,20480.00
2022-08-04T11:15:03.716Z,20224.00
2022-08-04T11:16:04.007Z,21504.00
2022-08-04T11:17:03.195Z,24480.00
2022-08-04T11:18:03.828Z,23456.00
2022-08-04T11:19:03.745Z,21440.00
2022-08-04T11:20:32.269Z,19424.00
2022-08-04T11:21:03.947Z,18368.00
2022-08-04T11:22:03.806Z,24576.00
2022-08-04T11:23:02.935Z,18368.00
2022-08-04T11:24:02.904Z,30144.00
2022-08-04T11:25:02.903Z,26944.00
2022-08-04T11:26:02.895Z,24576.00
2022-08-04T11:27:02.865Z,20096.00
2022-08-04T11:28:03.784Z,29472.00
2022-08-04T11:29:04.515Z,26432.00
2022-08-04T11:30:03.578Z,26592.00
2022-08-04T11:31:04.016Z,35296.00
2022-08-04T11:32:03.931Z,38880.00
2022-08-04T11:33:02.999Z,31712.00
2022-08-04T11:34:02.928Z,36992.00
2022-08-04T11:35:02.925Z,10976.00
2022-08-04T11:36:03.509Z,38400.00
2022-08-04T11:37:03.423Z,38240.00
2022-08-04T11:38:03.463Z,29792.00
2022-08-04T11:39:03.433Z,33248.00
2022-08-04T11:40:03.999Z,33280.00
2022-08-04T11:41:04.023Z,33952.00
2022-08-04T11:42:03.955Z,31392.00
2022-08-04T11:43:02.886Z,45952.00
2022-08-04T11:44:07.907Z,39776.00
2022-08-04T11:45:02.905Z,40448.00
2022-08-04T11:46:02.991Z,42496.00
2022-08-04T11:47:03.030Z,19200.00
2022-08-04T11:48:03.672Z,35328.00
2022-08-04T11:49:04.278Z,22176.00
2022-08-04T11:50:04.158Z,30880.00
2022-08-04T11:51:03.974Z,26048.00
2022-08-04T11:52:03.860Z,28640.00
2022-08-04T11:53:03.717Z,19904.00
2022-08-04T11:54:03.727Z,18976.00
2022-08-04T11:55:03.755Z,19104.00
2022-08-04T11:56:08.204Z,18048.00
2022-08-04T11:57:03.881Z,17696.00
2022-08-04T11:58:03.529Z,18752.00
2022-08-04T11:59:03.458Z,19648.00
2022-08-04T12:00:07.619Z,19616.00
2022-08-04T12:01:03.464Z,19136.00
2022-08-04T12:02:04.158Z,18688.00
2022-08-04T12:03:03.210Z,18656.00
2022-08-04T12:04:03.586Z,16640.00
2022-08-04T12:05:03.193Z,16224.00
2022-08-04T12:06:03.163Z,15840.00
2022-08-04T12:07:30.522Z,15296.00
2022-08-04T12:08:03.846Z,14512.00
2022-08-04T12:09:03.789Z,14040.00
2022-08-04T12:10:03.716Z,13240.00
2022-08-04T12:11:03.816Z,12308.00
2022-08-04T12:12:04.282Z,11552.00
2022-08-04T12:13:03.316Z,10756.00
2022-08-04T12:14:03.345Z,9844.00
2022-08-04T12:15:03.103Z,8856.00
2022-08-04T12:16:03.695Z,7928.00
2022-08-04T12:17:03.605Z,7216.00